sensor_id;sensor_type;location;lat;lon;timestamp;P1;durP1;ratioP1;P2;durP2;ratioP2
52866;SDS011;38739;53.324;6.862;2023-10-08T00:01:28;2.47;;;0.60;;
52866;SDS011;38739;53.324;6.862;2023-10-08T00:03:55;2.78;;;0.68;;
52866;SDS011;38739;53.324;6.862;2023-10-08T00:06:25;2.10;;;0.38;;
52866;SDS011;38739;53.324;6.862;2023-10-08T00:08:53;5.68;;;0.60;;
52866;SDS011;38739;53.324;6.862;2023-10-08T00:11:24;1.27;;;0.40;;
52866;SDS011;38739;53.324;6.862;2023-10-08T00:13:56;2.00;;;0.60;;
52866;SDS011;38739;53.324;6.862;2023-10-08T00:16:22;4.07;;;0.70;;
52866;SDS011;38739;53.324;6.862;2023-10-08T00:18:48;3.08;;;0.47;;
52866;SDS011;38739;53.324;6.862;2023-10-08T00:21:23;3.08;;;0.50;;
52866;SDS011;38739;53.324;6.862;2023-10-08T00:23:51;1.33;;;0.50;;
52866;SDS011;38739;53.324;6.862;2023-10-08T00:26:21;3.75;;;0.70;;
52866;SDS011;38739;53.324;6.862;2023-10-08T00:28:55;5.93;;;0.77;;
52866;SDS011;38739;53.324;6.862;2023-10-08T00:31:22;2.83;;;0.70;;
52866;SDS011;38739;53.324;6.862;2023-10-08T00:33:52;6.63;;;1.00;;
52866;SDS011;38739;53.324;6.862;2023-10-08T00:36:18;2.65;;;0.70;;
52866;SDS011;38739;53.324;6.862;2023-10-08T00:38:45;1.95;;;0.40;;
52866;SDS011;38739;53.324;6.862;2023-10-08T00:43:43;3.83;;;0.60;;
52866;SDS011;38739;53.324;6.862;2023-10-08T00:46:10;3.38;;;0.57;;
52866;SDS011;38739;53.324;6.862;2023-10-08T00:49:02;2.53;;;0.50;;
52866;SDS011;38739;53.324;6.862;2023-10-08T00:51:46;3.95;;;0.63;;
52866;SDS011;38739;53.324;6.862;2023-10-08T00:54:13;1.35;;;0.50;;
52866;SDS011;38739;53.324;6.862;2023-10-08T00:56:44;5.20;;;0.60;;
52866;SDS011;38739;53.324;6.862;2023-10-08T00:59:17;3.78;;;0.57;;
52866;SDS011;38739;53.324;6.862;2023-10-08T01:01:46;3.80;;;0.75;;
52866;SDS011;38739;53.324;6.862;2023-10-08T01:04:24;2.10;;;0.50;;
52866;SDS011;38739;53.324;6.862;2023-10-08T01:06:54;4.25;;;0.50;;
52866;SDS011;38739;53.324;6.862;2023-10-08T01:09:26;5.95;;;0.75;;
52866;SDS011;38739;53.324;6.862;2023-10-08T01:12:07;3.70;;;0.90;;
52866;SDS011;38739;53.324;6.862;2023-10-08T01:14:32;6.55;;;0.77;;
52866;SDS011;38739;53.324;6.862;2023-10-08T01:16:58;5.78;;;1.10;;
52866;SDS011;38739;53.324;6.862;2023-10-08T01:19:25;4.40;;;0.80;;
52866;SDS011;38739;53.324;6.862;2023-10-08T01:21:52;5.40;;;1.00;;
52866;SDS011;38739;53.324;6.862;2023-10-08T01:24:17;6.75;;;0.90;;
52866;SDS011;38739;53.324;6.862;2023-10-08T01:26:45;9.18;;;1.00;;
52866;SDS011;38739;53.324;6.862;2023-10-08T01:29:13;4.38;;;1.13;;
52866;SDS011;38739;53.324;6.862;2023-10-08T01:31:48;6.68;;;1.15;;
52866;SDS011;38739;53.324;6.862;2023-10-08T01:34:14;9.50;;;1.25;;
52866;SDS011;38739;53.324;6.862;2023-10-08T01:36:42;11.38;;;1.20;;
52866;SDS011;38739;53.324;6.862;2023-10-08T01:39:11;8.65;;;1.10;;
52866;SDS011;38739;53.324;6.862;2023-10-08T01:41:44;9.05;;;1.30;;
52866;SDS011;38739;53.324;6.862;2023-10-08T01:44:12;8.88;;;1.35;;
52866;SDS011;38739;53.324;6.862;2023-10-08T01:46:38;4.90;;;0.98;;
52866;SDS011;38739;53.324;6.862;2023-10-08T01:49:06;10.48;;;1.20;;
52866;SDS011;38739;53.324;6.862;2023-10-08T01:51:54;8.85;;;1.30;;
52866;SDS011;38739;53.324;6.862;2023-10-08T01:54:20;8.07;;;1.10;;
52866;SDS011;38739;53.324;6.862;2023-10-08T01:56:46;9.88;;;1.50;;
52866;SDS011;38739;53.324;6.862;2023-10-08T01:59:13;4.63;;;1.10;;
52866;SDS011;38739;53.324;6.862;2023-10-08T02:01:41;5.93;;;1.30;;
52866;SDS011;38739;53.324;6.862;2023-10-08T02:04:08;5.22;;;1.27;;
52866;SDS011;38739;53.324;6.862;2023-10-08T02:06:35;6.85;;;1.08;;
52866;SDS011;38739;53.324;6.862;2023-10-08T02:09:01;9.95;;;0.98;;
52866;SDS011;38739;53.324;6.862;2023-10-08T02:14:19;4.40;;;0.90;;
52866;SDS011;38739;53.324;6.862;2023-10-08T02:16:49;6.53;;;1.30;;
52866;SDS011;38739;53.324;6.862;2023-10-08T02:19:17;4.70;;;0.93;;
52866;SDS011;38739;53.324;6.862;2023-10-08T02:21:52;7.53;;;1.08;;
52866;SDS011;38739;53.324;6.862;2023-10-08T02:24:23;5.13;;;1.30;;
52866;SDS011;38739;53.324;6.862;2023-10-08T02:26:58;11.80;;;1.83;;
52866;SDS011;38739;53.324;6.862;2023-10-08T02:29:29;8.88;;;1.25;;
52866;SDS011;38739;53.324;6.862;2023-10-08T02:31:58;5.63;;;1.20;;
52866;SDS011;38739;53.324;6.862;2023-10-08T02:34:24;9.10;;;1.42;;
52866;SDS011;38739;53.324;6.862;2023-10-08T02:36:50;7.90;;;1.75;;
52866;SDS011;38739;53.324;6.862;2023-10-08T02:39:16;7.28;;;1.25;;
52866;SDS011;38739;53.324;6.862;2023-10-08T02:41:51;8.77;;;1.10;;
52866;SDS011;38739;53.324;6.862;2023-10-08T02:44:19;6.57;;;1.15;;
52866;SDS011;38739;53.324;6.862;2023-10-08T02:46:46;8.82;;;1.50;;
52866;SDS011;38739;53.324;6.862;2023-10-08T02:49:16;6.82;;;1.20;;
52866;SDS011;38739;53.324;6.862;2023-10-08T02:54:11;5.80;;;1.02;;
52866;SDS011;38739;53.324;6.862;2023-10-08T02:56:47;11.10;;;1.23;;
52866;SDS011;38739;53.324;6.862;2023-10-08T02:59:17;4.50;;;1.33;;
52866;SDS011;38739;53.324;6.862;2023-10-08T03:01:43;7.63;;;1.10;;
52866;SDS011;38739;53.324;6.862;2023-10-08T03:04:09;9.10;;;1.30;;
52866;SDS011;38739;53.324;6.862;2023-10-08T03:06:47;9.25;;;1.20;;
52866;SDS011;38739;53.324;6.862;2023-10-08T03:09:18;6.05;;;1.10;;
52866;SDS011;38739;53.324;6.862;2023-10-08T03:11:57;8.43;;;1.20;;
52866;SDS011;38739;53.324;6.862;2023-10-08T03:14:23;7.13;;;1.35;;
52866;SDS011;38739;53.324;6.862;2023-10-08T03:16:52;7.13;;;1.60;;
52866;SDS011;38739;53.324;6.862;2023-10-08T03:19:32;5.95;;;1.50;;
52866;SDS011;38739;53.324;6.862;2023-10-08T03:21:58;7.28;;;1.83;;
52866;SDS011;38739;53.324;6.862;2023-10-08T03:24:24;5.70;;;1.23;;
52866;SDS011;38739;53.324;6.862;2023-10-08T03:27:02;6.20;;;1.20;;
52866;SDS011;38739;53.324;6.862;2023-10-08T03:29:45;6.47;;;1.50;;
52866;SDS011;38739;53.324;6.862;2023-10-08T03:32:12;7.47;;;1.50;;
52866;SDS011;38739;53.324;6.862;2023-10-08T03:34:48;3.45;;;1.35;;
52866;SDS011;38739;53.324;6.862;2023-10-08T03:37:16;7.45;;;1.30;;
52866;SDS011;38739;53.324;6.862;2023-10-08T03:39:49;9.20;;;1.50;;
52866;SDS011;38739;53.324;6.862;2023-10-08T03:42:47;6.70;;;1.50;;
52866;SDS011;38739;53.324;6.862;2023-10-08T03:45:14;8.38;;;1.60;;
52866;SDS011;38739;53.324;6.862;2023-10-08T03:47:47;9.52;;;1.55;;
52866;SDS011;38739;53.324;6.862;2023-10-08T03:50:27;5.10;;;1.40;;
52866;SDS011;38739;53.324;6.862;2023-10-08T03:53:06;7.78;;;1.60;;
52866;SDS011;38739;53.324;6.862;2023-10-08T03:55:37;5.97;;;1.52;;
52866;SDS011;38739;53.324;6.862;2023-10-08T03:58:08;6.47;;;1.38;;
52866;SDS011;38739;53.324;6.862;2023-10-08T04:00:54;7.88;;;1.30;;
52866;SDS011;38739;53.324;6.862;2023-10-08T04:03:36;7.35;;;1.30;;
52866;SDS011;38739;53.324;6.862;2023-10-08T04:06:17;8.77;;;1.70;;
52866;SDS011;38739;53.324;6.862;2023-10-08T04:08:55;5.78;;;1.30;;
52866;SDS011;38739;53.324;6.862;2023-10-08T04:11:30;5.82;;;1.20;;
52866;SDS011;38739;53.324;6.862;2023-10-08T04:14:00;6.07;;;1.38;;
52866;SDS011;38739;53.324;6.862;2023-10-08T04:16:31;8.75;;;1.88;;
52866;SDS011;38739;53.324;6.862;2023-10-08T04:19:02;8.50;;;1.75;;
52866;SDS011;38739;53.324;6.862;2023-10-08T04:21:28;5.43;;;1.73;;
52866;SDS011;38739;53.324;6.862;2023-10-08T04:23:55;11.98;;;1.98;;
52866;SDS011;38739;53.324;6.862;2023-10-08T04:26:22;9.80;;;1.70;;
52866;SDS011;38739;53.324;6.862;2023-10-08T04:28:50;12.00;;;1.60;;
52866;SDS011;38739;53.324;6.862;2023-10-08T04:31:27;7.15;;;1.40;;
52866;SDS011;38739;53.324;6.862;2023-10-08T04:34:02;10.80;;;1.80;;
52866;SDS011;38739;53.324;6.862;2023-10-08T04:36:35;9.25;;;1.63;;
52866;SDS011;38739;53.324;6.862;2023-10-08T04:39:04;14.15;;;1.70;;
52866;SDS011;38739;53.324;6.862;2023-10-08T04:41:42;12.57;;;1.60;;
52866;SDS011;38739;53.324;6.862;2023-10-08T04:44:08;8.05;;;1.50;;
52866;SDS011;38739;53.324;6.862;2023-10-08T04:46:44;9.27;;;1.65;;
52866;SDS011;38739;53.324;6.862;2023-10-08T04:49:10;11.05;;;1.88;;
52866;SDS011;38739;53.324;6.862;2023-10-08T04:51:48;9.60;;;1.40;;
52866;SDS011;38739;53.324;6.862;2023-10-08T04:54:14;7.10;;;1.40;;
52866;SDS011;38739;53.324;6.862;2023-10-08T04:56:43;10.48;;;1.67;;
52866;SDS011;38739;53.324;6.862;2023-10-08T04:59:09;10.25;;;1.45;;
52866;SDS011;38739;53.324;6.862;2023-10-08T05:01:38;9.25;;;1.33;;
52866;SDS011;38739;53.324;6.862;2023-10-08T05:04:12;10.82;;;1.83;;
52866;SDS011;38739;53.324;6.862;2023-10-08T05:06:49;7.63;;;1.40;;
52866;SDS011;38739;53.324;6.862;2023-10-08T05:09:14;9.35;;;1.55;;
52866;SDS011;38739;53.324;6.862;2023-10-08T05:11:43;9.13;;;1.25;;
52866;SDS011;38739;53.324;6.862;2023-10-08T05:14:19;8.43;;;1.38;;
52866;SDS011;38739;53.324;6.862;2023-10-08T05:17:16;9.95;;;1.30;;
52866;SDS011;38739;53.324;6.862;2023-10-08T05:19:45;8.63;;;1.58;;
52866;SDS011;38739;53.324;6.862;2023-10-08T05:22:16;7.18;;;1.55;;
52866;SDS011;38739;53.324;6.862;2023-10-08T05:24:46;9.98;;;1.52;;
52866;SDS011;38739;53.324;6.862;2023-10-08T05:27:32;9.80;;;1.45;;
52866;SDS011;38739;53.324;6.862;2023-10-08T05:30:17;11.32;;;1.40;;
52866;SDS011;38739;53.324;6.862;2023-10-08T05:33:05;9.27;;;1.45;;
52866;SDS011;38739;53.324;6.862;2023-10-08T05:38:09;15.98;;;1.70;;
52866;SDS011;38739;53.324;6.862;2023-10-08T05:40:47;6.22;;;1.50;;
52866;SDS011;38739;53.324;6.862;2023-10-08T05:43:36;7.82;;;1.50;;
52866;SDS011;38739;53.324;6.862;2023-10-08T05:46:05;9.40;;;1.48;;
52866;SDS011;38739;53.324;6.862;2023-10-08T05:48:50;7.63;;;1.45;;
52866;SDS011;38739;53.324;6.862;2023-10-08T05:51:29;7.43;;;1.60;;
52866;SDS011;38739;53.324;6.862;2023-10-08T05:54:14;9.25;;;1.63;;
52866;SDS011;38739;53.324;6.862;2023-10-08T05:56:57;9.65;;;1.80;;
52866;SDS011;38739;53.324;6.862;2023-10-08T05:59:36;11.25;;;1.70;;
52866;SDS011;38739;53.324;6.862;2023-10-08T06:02:38;10.20;;;1.70;;
52866;SDS011;38739;53.324;6.862;2023-10-08T06:05:11;8.48;;;1.60;;
52866;SDS011;38739;53.324;6.862;2023-10-08T06:10:22;10.32;;;1.48;;
52866;SDS011;38739;53.324;6.862;2023-10-08T06:13:07;7.25;;;1.35;;
52866;SDS011;38739;53.324;6.862;2023-10-08T06:18:28;10.27;;;1.80;;
52866;SDS011;38739;53.324;6.862;2023-10-08T06:20:57;13.48;;;1.67;;
52866;SDS011;38739;53.324;6.862;2023-10-08T06:23:24;8.35;;;1.40;;
52866;SDS011;38739;53.324;6.862;2023-10-08T06:25:51;8.68;;;1.52;;
52866;SDS011;38739;53.324;6.862;2023-10-08T06:28:30;8.55;;;1.67;;
52866;SDS011;38739;53.324;6.862;2023-10-08T06:31:00;11.55;;;1.70;;
52866;SDS011;38739;53.324;6.862;2023-10-08T06:33:27;8.52;;;1.60;;
52866;SDS011;38739;53.324;6.862;2023-10-08T06:35:56;9.13;;;1.70;;
52866;SDS011;38739;53.324;6.862;2023-10-08T06:38:34;9.75;;;1.35;;
52866;SDS011;38739;53.324;6.862;2023-10-08T06:41:00;8.88;;;2.25;;
52866;SDS011;38739;53.324;6.862;2023-10-08T06:43:40;10.13;;;1.58;;
52866;SDS011;38739;53.324;6.862;2023-10-08T06:46:16;10.63;;;1.63;;
52866;SDS011;38739;53.324;6.862;2023-10-08T06:48:47;9.73;;;1.70;;
52866;SDS011;38739;53.324;6.862;2023-10-08T06:51:15;9.43;;;1.95;;
52866;SDS011;38739;53.324;6.862;2023-10-08T06:53:44;10.73;;;2.00;;
52866;SDS011;38739;53.324;6.862;2023-10-08T06:56:12;8.30;;;1.98;;
52866;SDS011;38739;53.324;6.862;2023-10-08T06:58:39;6.82;;;1.90;;
52866;SDS011;38739;53.324;6.862;2023-10-08T07:01:10;6.97;;;1.73;;
52866;SDS011;38739;53.324;6.862;2023-10-08T07:03:38;10.15;;;1.98;;
52866;SDS011;38739;53.324;6.862;2023-10-08T07:06:04;10.07;;;1.48;;
52866;SDS011;38739;53.324;6.862;2023-10-08T07:08:41;6.60;;;1.70;;
52866;SDS011;38739;53.324;6.862;2023-10-08T07:11:11;12.82;;;1.83;;
52866;SDS011;38739;53.324;6.862;2023-10-08T07:13:38;11.57;;;1.92;;
52866;SDS011;38739;53.324;6.862;2023-10-08T07:16:07;12.60;;;1.95;;
52866;SDS011;38739;53.324;6.862;2023-10-08T07:18:36;13.20;;;1.98;;
52866;SDS011;38739;53.324;6.862;2023-10-08T07:21:07;9.75;;;1.70;;
52866;SDS011;38739;53.324;6.862;2023-10-08T07:23:39;11.82;;;1.73;;
52866;SDS011;38739;53.324;6.862;2023-10-08T07:26:28;6.95;;;1.70;;
52866;SDS011;38739;53.324;6.862;2023-10-08T07:29:05;11.38;;;1.92;;
52866;SDS011;38739;53.324;6.862;2023-10-08T07:31:35;10.63;;;1.80;;
52866;SDS011;38739;53.324;6.862;2023-10-08T07:34:02;11.45;;;1.92;;
52866;SDS011;38739;53.324;6.862;2023-10-08T07:36:41;12.13;;;1.67;;
52866;SDS011;38739;53.324;6.862;2023-10-08T07:39:08;10.25;;;1.60;;
52866;SDS011;38739;53.324;6.862;2023-10-08T07:41:48;7.40;;;1.90;;
52866;SDS011;38739;53.324;6.862;2023-10-08T07:44:14;8.25;;;1.65;;
52866;SDS011;38739;53.324;6.862;2023-10-08T07:46:40;7.47;;;1.80;;
52866;SDS011;38739;53.324;6.862;2023-10-08T07:49:06;8.50;;;1.75;;
52866;SDS011;38739;53.324;6.862;2023-10-08T07:51:32;7.75;;;1.67;;
52866;SDS011;38739;53.324;6.862;2023-10-08T07:53:58;9.00;;;2.00;;
52866;SDS011;38739;53.324;6.862;2023-10-08T07:56:25;13.63;;;2.28;;
52866;SDS011;38739;53.324;6.862;2023-10-08T07:58:53;10.18;;;1.67;;
52866;SDS011;38739;53.324;6.862;2023-10-08T08:01:23;9.33;;;1.83;;
52866;SDS011;38739;53.324;6.862;2023-10-08T08:03:52;13.38;;;2.20;;
52866;SDS011;38739;53.324;6.862;2023-10-08T08:06:17;13.05;;;1.77;;
52866;SDS011;38739;53.324;6.862;2023-10-08T08:08:43;9.68;;;1.58;;
52866;SDS011;38739;53.324;6.862;2023-10-08T08:11:09;11.13;;;2.13;;
52866;SDS011;38739;53.324;6.862;2023-10-08T08:13:42;9.23;;;1.40;;
52866;SDS011;38739;53.324;6.862;2023-10-08T08:16:10;12.18;;;1.60;;
52866;SDS011;38739;53.324;6.862;2023-10-08T08:21:11;9.20;;;1.70;;
52866;SDS011;38739;53.324;6.862;2023-10-08T08:23:42;10.82;;;1.90;;
52866;SDS011;38739;53.324;6.862;2023-10-08T08:26:19;6.53;;;1.60;;
52866;SDS011;38739;53.324;6.862;2023-10-08T08:31:22;7.40;;;1.48;;
52866;SDS011;38739;53.324;6.862;2023-10-08T08:33:50;11.43;;;1.83;;
52866;SDS011;38739;53.324;6.862;2023-10-08T08:36:22;7.95;;;1.50;;
52866;SDS011;38739;53.324;6.862;2023-10-08T08:38:49;8.40;;;1.80;;
52866;SDS011;38739;53.324;6.862;2023-10-08T08:41:15;8.52;;;1.40;;
52866;SDS011;38739;53.324;6.862;2023-10-08T08:43:48;9.50;;;2.00;;
52866;SDS011;38739;53.324;6.862;2023-10-08T08:46:27;7.43;;;1.60;;
52866;SDS011;38739;53.324;6.862;2023-10-08T08:51:24;11.15;;;1.60;;
52866;SDS011;38739;53.324;6.862;2023-10-08T08:53:50;9.02;;;1.77;;
52866;SDS011;38739;53.324;6.862;2023-10-08T08:56:17;6.53;;;1.60;;
52866;SDS011;38739;53.324;6.862;2023-10-08T08:58:43;8.50;;;1.73;;
52866;SDS011;38739;53.324;6.862;2023-10-08T09:01:11;7.60;;;1.60;;
52866;SDS011;38739;53.324;6.862;2023-10-08T09:03:38;3.80;;;1.23;;
52866;SDS011;38739;53.324;6.862;2023-10-08T09:06:04;10.32;;;1.92;;
52866;SDS011;38739;53.324;6.862;2023-10-08T09:08:34;10.15;;;1.50;;
52866;SDS011;38739;53.324;6.862;2023-10-08T09:11:01;8.85;;;1.52;;
52866;SDS011;38739;53.324;6.862;2023-10-08T09:13:33;8.75;;;1.40;;
52866;SDS011;38739;53.324;6.862;2023-10-08T09:16:13;11.75;;;1.58;;
52866;SDS011;38739;53.324;6.862;2023-10-08T09:18:44;6.75;;;1.65;;
52866;SDS011;38739;53.324;6.862;2023-10-08T09:21:13;7.00;;;1.38;;
52866;SDS011;38739;53.324;6.862;2023-10-08T09:23:40;6.57;;;1.38;;
52866;SDS011;38739;53.324;6.862;2023-10-08T09:26:12;12.15;;;1.77;;
52866;SDS011;38739;53.324;6.862;2023-10-08T09:28:48;11.45;;;2.05;;
52866;SDS011;38739;53.324;6.862;2023-10-08T09:31:16;8.35;;;1.52;;
52866;SDS011;38739;53.324;6.862;2023-10-08T09:34:03;14.85;;;1.58;;
52866;SDS011;38739;53.324;6.862;2023-10-08T09:36:29;7.57;;;1.55;;
52866;SDS011;38739;53.324;6.862;2023-10-08T09:38:59;9.15;;;1.63;;
52866;SDS011;38739;53.324;6.862;2023-10-08T09:41:29;8.13;;;1.50;;
52866;SDS011;38739;53.324;6.862;2023-10-08T09:44:02;7.93;;;1.20;;
52866;SDS011;38739;53.324;6.862;2023-10-08T09:46:31;6.35;;;1.30;;
52866;SDS011;38739;53.324;6.862;2023-10-08T09:49:00;9.88;;;1.60;;
52866;SDS011;38739;53.324;6.862;2023-10-08T09:51:29;8.98;;;1.70;;
52866;SDS011;38739;53.324;6.862;2023-10-08T09:56:35;9.00;;;1.52;;
52866;SDS011;38739;53.324;6.862;2023-10-08T09:59:01;8.57;;;1.55;;
52866;SDS011;38739;53.324;6.862;2023-10-08T10:01:27;7.50;;;1.60;;
52866;SDS011;38739;53.324;6.862;2023-10-08T10:03:57;9.10;;;1.33;;
52866;SDS011;38739;53.324;6.862;2023-10-08T10:06:25;5.80;;;1.17;;
52866;SDS011;38739;53.324;6.862;2023-10-08T10:08:52;11.48;;;1.30;;
52866;SDS011;38739;53.324;6.862;2023-10-08T10:11:30;8.18;;;1.38;;
52866;SDS011;38739;53.324;6.862;2023-10-08T10:13:59;5.95;;;1.38;;
52866;SDS011;38739;53.324;6.862;2023-10-08T10:16:25;10.73;;;1.45;;
52866;SDS011;38739;53.324;6.862;2023-10-08T10:18:54;7.60;;;1.70;;
52866;SDS011;38739;53.324;6.862;2023-10-08T10:21:25;10.07;;;1.10;;
52866;SDS011;38739;53.324;6.862;2023-10-08T10:23:56;9.75;;;1.42;;
52866;SDS011;38739;53.324;6.862;2023-10-08T10:31:40;7.97;;;1.20;;
52866;SDS011;38739;53.324;6.862;2023-10-08T10:34:15;6.05;;;1.00;;
52866;SDS011;38739;53.324;6.862;2023-10-08T10:36:43;9.30;;;1.25;;
52866;SDS011;38739;53.324;6.862;2023-10-08T10:39:17;6.00;;;1.65;;
52866;SDS011;38739;53.324;6.862;2023-10-08T10:41:59;7.15;;;1.10;;
52866;SDS011;38739;53.324;6.862;2023-10-08T10:44:31;5.15;;;1.23;;
52866;SDS011;38739;53.324;6.862;2023-10-08T10:46:58;6.47;;;1.23;;
52866;SDS011;38739;53.324;6.862;2023-10-08T10:49:40;7.10;;;1.50;;
52866;SDS011;38739;53.324;6.862;2023-10-08T10:52:27;6.72;;;1.17;;
52866;SDS011;38739;53.324;6.862;2023-10-08T10:55:13;4.75;;;1.20;;
52866;SDS011;38739;53.324;6.862;2023-10-08T10:57:39;8.65;;;1.27;;
52866;SDS011;38739;53.324;6.862;2023-10-08T11:00:07;8.63;;;1.25;;
52866;SDS011;38739;53.324;6.862;2023-10-08T11:02:51;6.35;;;1.50;;
52866;SDS011;38739;53.324;6.862;2023-10-08T11:05:21;7.20;;;1.27;;
52866;SDS011;38739;53.324;6.862;2023-10-08T11:07:54;7.32;;;1.30;;
52866;SDS011;38739;53.324;6.862;2023-10-08T11:10:36;8.13;;;1.38;;
52866;SDS011;38739;53.324;6.862;2023-10-08T11:13:04;5.20;;;1.00;;
52866;SDS011;38739;53.324;6.862;2023-10-08T11:15:39;7.53;;;1.13;;
52866;SDS011;38739;53.324;6.862;2023-10-08T11:18:12;5.97;;;1.08;;
52866;SDS011;38739;53.324;6.862;2023-10-08T11:20:40;4.78;;;1.23;;
52866;SDS011;38739;53.324;6.862;2023-10-08T11:23:31;8.18;;;1.33;;
52866;SDS011;38739;53.324;6.862;2023-10-08T11:26:03;8.13;;;1.30;;
52866;SDS011;38739;53.324;6.862;2023-10-08T11:28:31;5.63;;;1.10;;
52866;SDS011;38739;53.324;6.862;2023-10-08T11:31:02;7.72;;;1.30;;
52866;SDS011;38739;53.324;6.862;2023-10-08T11:33:35;9.10;;;1.65;;
52866;SDS011;38739;53.324;6.862;2023-10-08T11:36:05;4.72;;;1.10;;
52866;SDS011;38739;53.324;6.862;2023-10-08T11:38:43;7.65;;;1.30;;
52866;SDS011;38739;53.324;6.862;2023-10-08T11:41:14;7.80;;;1.58;;
52866;SDS011;38739;53.324;6.862;2023-10-08T11:43:51;5.18;;;1.17;;
52866;SDS011;38739;53.324;6.862;2023-10-08T11:46:27;9.20;;;1.65;;
52866;SDS011;38739;53.324;6.862;2023-10-08T11:49:06;8.73;;;1.52;;
52866;SDS011;38739;53.324;6.862;2023-10-08T11:51:42;6.60;;;1.30;;
52866;SDS011;38739;53.324;6.862;2023-10-08T11:54:09;5.00;;;1.40;;
52866;SDS011;38739;53.324;6.862;2023-10-08T11:56:38;5.93;;;1.00;;
52866;SDS011;38739;53.324;6.862;2023-10-08T11:59:04;5.28;;;1.23;;
52866;SDS011;38739;53.324;6.862;2023-10-08T12:01:37;7.50;;;1.20;;
52866;SDS011;38739;53.324;6.862;2023-10-08T12:04:07;6.53;;;1.30;;
52866;SDS011;38739;53.324;6.862;2023-10-08T12:06:41;8.90;;;1.70;;
52866;SDS011;38739;53.324;6.862;2023-10-08T12:09:17;6.95;;;1.10;;
52866;SDS011;38739;53.324;6.862;2023-10-08T12:11:47;6.00;;;1.23;;
52866;SDS011;38739;53.324;6.862;2023-10-08T12:14:13;8.93;;;1.20;;
52866;SDS011;38739;53.324;6.862;2023-10-08T12:16:40;4.50;;;1.30;;
52866;SDS011;38739;53.324;6.862;2023-10-08T12:19:06;7.40;;;1.33;;
52866;SDS011;38739;53.324;6.862;2023-10-08T12:21:41;9.52;;;1.33;;
52866;SDS011;38739;53.324;6.862;2023-10-08T12:24:11;6.28;;;1.10;;
52866;SDS011;38739;53.324;6.862;2023-10-08T12:26:37;9.25;;;1.48;;
52866;SDS011;38739;53.324;6.862;2023-10-08T12:29:14;11.40;;;1.73;;
52866;SDS011;38739;53.324;6.862;2023-10-08T12:31:42;7.55;;;1.55;;
52866;SDS011;38739;53.324;6.862;2023-10-08T12:34:12;7.20;;;1.70;;
52866;SDS011;38739;53.324;6.862;2023-10-08T12:36:39;5.53;;;1.50;;
52866;SDS011;38739;53.324;6.862;2023-10-08T12:39:04;7.05;;;1.40;;
52866;SDS011;38739;53.324;6.862;2023-10-08T12:41:41;7.95;;;1.58;;
52866;SDS011;38739;53.324;6.862;2023-10-08T12:44:09;6.65;;;1.33;;
52866;SDS011;38739;53.324;6.862;2023-10-08T12:46:36;5.15;;;1.10;;
52866;SDS011;38739;53.324;6.862;2023-10-08T12:49:02;8.55;;;1.55;;
52866;SDS011;38739;53.324;6.862;2023-10-08T12:51:29;7.82;;;1.52;;
52866;SDS011;38739;53.324;6.862;2023-10-08T12:53:59;7.53;;;1.20;;
52866;SDS011;38739;53.324;6.862;2023-10-08T12:56:32;6.78;;;1.20;;
52866;SDS011;38739;53.324;6.862;2023-10-08T13:01:33;6.53;;;1.00;;
52866;SDS011;38739;53.324;6.862;2023-10-08T13:04:01;4.05;;;1.00;;
52866;SDS011;38739;53.324;6.862;2023-10-08T13:06:32;3.73;;;1.00;;
52866;SDS011;38739;53.324;6.862;2023-10-08T13:09:02;10.07;;;1.42;;
52866;SDS011;38739;53.324;6.862;2023-10-08T13:13:59;6.78;;;1.42;;
52866;SDS011;38739;53.324;6.862;2023-10-08T13:16:26;6.93;;;1.40;;
52866;SDS011;38739;53.324;6.862;2023-10-08T13:18:56;6.53;;;1.40;;
52866;SDS011;38739;53.324;6.862;2023-10-08T13:21:23;7.63;;;1.20;;
52866;SDS011;38739;53.324;6.862;2023-10-08T13:23:51;5.47;;;1.40;;
52866;SDS011;38739;53.324;6.862;2023-10-08T13:26:17;6.85;;;1.58;;
52866;SDS011;38739;53.324;6.862;2023-10-08T13:28:43;8.85;;;1.33;;
52866;SDS011;38739;53.324;6.862;2023-10-08T13:31:12;7.93;;;1.38;;
52866;SDS011;38739;53.324;6.862;2023-10-08T13:33:41;6.78;;;1.40;;
52866;SDS011;38739;53.324;6.862;2023-10-08T13:36:09;5.93;;;1.25;;
52866;SDS011;38739;53.324;6.862;2023-10-08T13:38:36;9.88;;;1.90;;
52866;SDS011;38739;53.324;6.862;2023-10-08T13:41:03;10.30;;;1.45;;
52866;SDS011;38739;53.324;6.862;2023-10-08T13:43:35;7.47;;;1.80;;
52866;SDS011;38739;53.324;6.862;2023-10-08T13:46:05;5.68;;;1.30;;
52866;SDS011;38739;53.324;6.862;2023-10-08T13:51:01;5.45;;;1.20;;
52866;SDS011;38739;53.324;6.862;2023-10-08T13:53:32;6.82;;;1.50;;
52866;SDS011;38739;53.324;6.862;2023-10-08T13:56:01;5.65;;;1.23;;
52866;SDS011;38739;53.324;6.862;2023-10-08T13:58:29;6.57;;;1.20;;
52866;SDS011;38739;53.324;6.862;2023-10-08T14:01:05;9.45;;;1.40;;
52866;SDS011;38739;53.324;6.862;2023-10-08T14:03:44;6.00;;;1.50;;
52866;SDS011;38739;53.324;6.862;2023-10-08T14:06:10;7.78;;;1.33;;
52866;SDS011;38739;53.324;6.862;2023-10-08T14:08:36;5.15;;;1.23;;
52866;SDS011;38739;53.324;6.862;2023-10-08T14:11:04;7.65;;;1.52;;
52866;SDS011;38739;53.324;6.862;2023-10-08T14:13:30;6.13;;;1.50;;
52866;SDS011;38739;53.324;6.862;2023-10-08T14:15:58;7.10;;;1.25;;
52866;SDS011;38739;53.324;6.862;2023-10-08T14:18:27;6.78;;;1.40;;
52866;SDS011;38739;53.324;6.862;2023-10-08T14:20:53;6.88;;;1.55;;
52866;SDS011;38739;53.324;6.862;2023-10-08T14:23:20;7.70;;;1.50;;
52866;SDS011;38739;53.324;6.862;2023-10-08T14:25:48;7.05;;;1.27;;
52866;SDS011;38739;53.324;6.862;2023-10-08T14:28:16;6.80;;;1.35;;
52866;SDS011;38739;53.324;6.862;2023-10-08T14:31:05;9.95;;;1.25;;
52866;SDS011;38739;53.324;6.862;2023-10-08T14:33:40;7.47;;;1.40;;
52866;SDS011;38739;53.324;6.862;2023-10-08T14:36:22;6.82;;;1.50;;
52866;SDS011;38739;53.324;6.862;2023-10-08T14:39:07;7.75;;;1.45;;
52866;SDS011;38739;53.324;6.862;2023-10-08T14:41:52;5.88;;;1.30;;
52866;SDS011;38739;53.324;6.862;2023-10-08T14:44:36;6.05;;;1.70;;
52866;SDS011;38739;53.324;6.862;2023-10-08T14:47:03;6.97;;;1.42;;
52866;SDS011;38739;53.324;6.862;2023-10-08T14:49:29;5.47;;;1.38;;
52866;SDS011;38739;53.324;6.862;2023-10-08T14:51:55;7.75;;;1.48;;
52866;SDS011;38739;53.324;6.862;2023-10-08T14:54:21;7.43;;;1.40;;
52866;SDS011;38739;53.324;6.862;2023-10-08T14:56:47;6.22;;;1.45;;
52866;SDS011;38739;53.324;6.862;2023-10-08T14:59:12;8.77;;;1.70;;
52866;SDS011;38739;53.324;6.862;2023-10-08T15:01:40;6.72;;;1.50;;
52866;SDS011;38739;53.324;6.862;2023-10-08T15:04:06;4.13;;;1.17;;
52866;SDS011;38739;53.324;6.862;2023-10-08T15:06:36;6.85;;;1.50;;
52866;SDS011;38739;53.324;6.862;2023-10-08T15:09:02;7.45;;;1.40;;
52866;SDS011;38739;53.324;6.862;2023-10-08T15:11:28;7.18;;;1.60;;
52866;SDS011;38739;53.324;6.862;2023-10-08T15:13:56;8.35;;;2.05;;
52866;SDS011;38739;53.324;6.862;2023-10-08T15:16:22;8.30;;;1.85;;
52866;SDS011;38739;53.324;6.862;2023-10-08T15:18:52;10.48;;;2.35;;
52866;SDS011;38739;53.324;6.862;2023-10-08T15:21:18;8.52;;;1.75;;
52866;SDS011;38739;53.324;6.862;2023-10-08T15:23:46;6.70;;;1.48;;
52866;SDS011;38739;53.324;6.862;2023-10-08T15:26:13;8.30;;;1.60;;
52866;SDS011;38739;53.324;6.862;2023-10-08T15:28:39;7.65;;;1.38;;
52866;SDS011;38739;53.324;6.862;2023-10-08T15:31:05;7.03;;;1.70;;
52866;SDS011;38739;53.324;6.862;2023-10-08T15:33:32;8.88;;;1.70;;
52866;SDS011;38739;53.324;6.862;2023-10-08T15:35:57;13.60;;;1.58;;
52866;SDS011;38739;53.324;6.862;2023-10-08T15:38:25;8.70;;;1.40;;
52866;SDS011;38739;53.324;6.862;2023-10-08T15:40:51;8.80;;;1.30;;
52866;SDS011;38739;53.324;6.862;2023-10-08T15:43:17;11.23;;;1.70;;
52866;SDS011;38739;53.324;6.862;2023-10-08T15:45:43;10.23;;;2.13;;
52866;SDS011;38739;53.324;6.862;2023-10-08T15:48:10;10.77;;;2.00;;